In Amenas, Algeria
Current Conditions -  °F | °C
As of 5:00 PM on Friday 24 Oct 2014 (Local Time) from DAUZ Reporting Station
Clear Clear  
Wind Chill: 82°   Ceiling: Unl
Heat Index: 82°   Visibility: 6mi
Dew Point: 36°   Wind: 12mph
Humidity: 19%   Direction: 290°WNW
Pressure: 29.94"   Gusts: NA
Location:  28.05°N, 9.56°E
Report Text: DAUZ 241600Z 29010KT 270V330 CAVOK 28/02 Q1014
Loading
Personal Weather Stations






























Interactive Weather Map New forecast layout! Learn more

10-Day Weather Forecast

Advertisements
Track Severe Weather on mobile